createdAt,value
2019-01-08T00:00:48.054Z,12.45
2019-01-08T00:03:17.135Z,12.46
2019-01-08T00:05:46.309Z,12.50
2019-01-08T00:08:15.475Z,12.50
2019-01-08T00:10:44.556Z,12.49
2019-01-08T00:13:14.411Z,12.51
2019-01-08T00:15:43.422Z,12.52
2019-01-08T00:18:12.476Z,12.55
2019-01-08T00:20:41.738Z,12.54
2019-01-08T00:23:10.822Z,12.59
2019-01-08T00:25:39.837Z,12.59
2019-01-08T00:28:08.888Z,12.66
2019-01-08T00:30:37.905Z,12.69
2019-01-08T00:33:06.960Z,12.67
2019-01-08T00:35:35.984Z,12.67
2019-01-08T00:38:05.024Z,12.64
2019-01-08T00:40:34.062Z,12.61
2019-01-08T00:43:03.120Z,12.60
2019-01-08T00:45:32.198Z,12.55
2019-01-08T09:43:23.691Z,10.88
2019-01-08T09:45:52.709Z,10.88
2019-01-08T09:48:21.784Z,10.90
2019-01-08T09:50:50.877Z,10.95
2019-01-08T09:53:19.940Z,11.01
2019-01-08T09:55:49.010Z,11.03
2019-01-08T09:58:18.099Z,11.07
2019-01-08T10:00:47.253Z,11.08
2019-01-08T10:03:16.337Z,11.15
2019-01-08T10:05:45.453Z,11.15
2019-01-08T10:08:14.564Z,11.13
2019-01-08T10:10:43.593Z,11.04
2019-01-08T10:13:12.642Z,11.07
2019-01-08T10:15:41.868Z,11.10
2019-01-08T10:18:10.942Z,11.11
2019-01-08T10:20:39.961Z,11.11
2019-01-08T10:23:10.234Z,11.19
2019-01-08T10:25:39.473Z,11.23
2019-01-08T10:28:08.549Z,11.28
2019-01-08T10:30:37.560Z,11.29
2019-01-08T10:33:06.642Z,11.34
2019-01-08T10:35:35.662Z,11.29
2019-01-08T10:38:04.774Z,11.31
2019-01-08T10:40:33.884Z,11.36
2019-01-08T10:43:02.950Z,11.41
2019-01-08T10:45:32.044Z,11.41
2019-01-08T10:48:01.745Z,11.39
2019-01-08T10:50:30.838Z,11.34
2019-01-08T10:52:59.904Z,11.34
2019-01-08T10:55:28.926Z,11.39
2019-01-08T10:57:57.980Z,11.36
2019-01-08T11:00:27.066Z,11.40
2019-01-08T11:02:56.139Z,11.42
2019-01-08T11:05:25.790Z,11.40
2019-01-08T11:07:54.938Z,11.38
2019-01-08T11:10:24.009Z,11.36
2019-01-08T11:12:53.043Z,11.35
2019-01-08T11:15:22.135Z,11.34
2019-01-08T11:17:52.015Z,11.39
2019-01-08T11:20:21.044Z,11.41
2019-01-08T11:22:50.136Z,11.41
2019-01-08T11:25:19.237Z,11.34
2019-01-08T11:27:48.335Z,11.30
2019-01-08T11:30:17.447Z,11.30
2019-01-08T11:32:46.490Z,11.25
2019-01-08T11:35:15.625Z,11.23
2019-01-08T11:37:44.736Z,11.28
2019-01-08T11:40:13.874Z,11.27
2019-01-08T11:42:42.908Z,11.27
2019-01-08T11:45:12.946Z,11.30
2019-01-08T11:47:41.988Z,11.34
2019-01-08T11:50:11.118Z,11.37
2019-01-08T11:52:40.135Z,11.44
2019-01-08T11:55:09.196Z,11.52
2019-01-08T11:57:38.275Z,11.61
2019-01-08T12:00:09.392Z,11.70
2019-01-08T12:02:38.513Z,11.82
2019-01-08T12:05:07.541Z,11.84
2019-01-08T12:07:36.555Z,11.87
2019-01-08T12:10:05.958Z,11.87
2019-01-08T12:12:35.026Z,11.85
2019-01-08T12:15:04.097Z,11.75
2019-01-08T12:17:33.150Z,11.77
2019-01-08T12:20:02.262Z,11.79
2019-01-08T12:22:31.313Z,11.80
2019-01-08T12:25:00.311Z,11.79
2019-01-08T12:27:29.483Z,11.74
2019-01-08T12:29:58.529Z,11.76
2019-01-08T12:32:27.614Z,11.76
2019-01-08T12:34:56.647Z,11.77
2019-01-08T12:37:25.716Z,11.80
2019-01-08T12:39:54.767Z,11.83
2019-01-08T12:42:23.863Z,11.91
2019-01-08T12:44:52.970Z,11.94
2019-01-08T12:47:22.029Z,12.02
2019-01-08T12:49:51.245Z,12.14
2019-01-08T12:52:20.314Z,12.20
2019-01-08T12:54:49.443Z,12.21
2019-01-08T12:57:18.469Z,12.30
2019-01-08T12:59:47.507Z,12.43
2019-01-08T13:02:16.600Z,12.40
2019-01-08T13:04:45.667Z,12.49
2019-01-08T13:07:14.695Z,12.51
2019-01-08T13:09:43.792Z,12.55
2019-01-08T13:12:12.891Z,12.64
2019-01-08T13:14:41.968Z,12.67
2019-01-08T13:17:11.819Z,12.66
2019-01-08T13:19:40.927Z,12.66
2019-01-08T13:22:09.953Z,12.66
2019-01-08T13:24:39.003Z,12.69
2019-01-08T13:27:08.085Z,12.67
2019-01-08T13:29:37.270Z,12.63
2019-01-08T13:32:06.346Z,12.60
2019-01-08T13:34:35.395Z,12.51
2019-01-08T13:37:04.455Z,12.27
2019-01-08T13:39:33.525Z,12.12
2019-01-08T13:42:02.641Z,11.98
2019-01-08T13:44:31.735Z,11.83
2019-01-08T13:47:00.766Z,11.78
2019-01-08T13:49:29.830Z,11.72
2019-01-08T13:51:59.145Z,11.67
2019-01-08T13:54:28.326Z,11.77
2019-01-08T13:56:57.433Z,11.77
2019-01-08T13:59:26.449Z,11.84
2019-01-08T14:01:55.488Z,11.90
2019-01-08T14:04:24.515Z,11.92
2019-01-08T14:06:53.542Z,11.97
2019-01-08T14:09:22.563Z,11.98
2019-01-08T14:11:51.696Z,11.94
2019-01-08T14:14:20.861Z,11.89
2019-01-08T14:16:49.895Z,11.86
2019-01-08T14:19:18.899Z,11.80
2019-01-08T14:21:47.997Z,11.75
2019-01-08T14:24:17.008Z,11.68
2019-01-08T14:26:46.045Z,11.64
2019-01-08T14:29:15.077Z,11.61
2019-01-08T14:31:44.177Z,11.65
2019-01-08T14:34:13.195Z,11.67
2019-01-08T14:36:42.287Z,11.66
2019-01-08T14:39:11.302Z,11.66
2019-01-08T14:41:40.353Z,11.63
2019-01-08T14:44:09.395Z,11.62
2019-01-08T14:46:38.512Z,11.54
2019-01-08T14:49:07.555Z,11.53
2019-01-08T14:51:36.671Z,11.55
2019-01-08T14:54:05.703Z,11.56
2019-01-08T14:56:34.709Z,11.56
2019-01-08T14:59:03.749Z,11.57
2019-01-08T15:01:32.734Z,11.60
2019-01-08T15:04:01.804Z,11.56
2019-01-08T15:06:30.728Z,11.54
2019-01-08T15:08:59.794Z,11.52
2019-01-08T15:11:28.819Z,11.49
2019-01-08T15:13:57.977Z,11.40
2019-01-08T15:16:27.065Z,11.38
2019-01-08T15:18:56.116Z,11.33
2019-01-08T15:21:25.154Z,11.28
2019-01-08T15:23:54.322Z,11.24
2019-01-08T15:26:23.540Z,11.21
2019-01-08T15:28:52.609Z,11.22
2019-01-08T15:31:21.586Z,11.18
2019-01-08T15:33:50.640Z,11.15
2019-01-08T15:36:19.705Z,11.06
2019-01-08T15:38:49.368Z,11.09
2019-01-08T15:41:19.278Z,11.09
2019-01-08T15:43:50.860Z,11.11
2019-01-08T15:46:19.904Z,11.11
2019-01-08T15:48:48.923Z,11.09
2019-01-08T15:51:17.990Z,11.07
2019-01-08T15:53:47.092Z,11.06
2019-01-08T15:56:16.190Z,11.05
2019-01-08T15:58:45.273Z,11.06
2019-01-08T16:01:14.329Z,11.04
2019-01-08T16:03:43.463Z,11.02
2019-01-08T16:06:12.600Z,11.00
2019-01-08T16:08:41.679Z,11.03
2019-01-08T16:11:10.694Z,11.05
2019-01-08T16:13:39.808Z,11.07
2019-01-08T16:16:08.842Z,11.09
2019-01-08T16:18:38.129Z,11.05
2019-01-08T16:21:07.188Z,11.01
2019-01-08T16:23:36.228Z,11.06
2019-01-08T16:26:05.340Z,11.05
2019-01-08T16:28:34.410Z,11.01
2019-01-08T16:31:03.538Z,11.02
2019-01-08T16:33:32.654Z,10.98
2019-01-08T16:36:01.938Z,11.00
2019-01-08T16:38:31.025Z,10.97
2019-01-08T16:41:00.162Z,10.97
2019-01-08T16:43:29.362Z,10.95
2019-01-08T16:45:58.485Z,10.98
2019-01-08T16:48:27.512Z,11.00
2019-01-08T16:50:56.712Z,10.98
2019-01-08T16:53:25.842Z,10.96
2019-01-08T16:55:54.939Z,11.00
2019-01-08T16:58:24.092Z,11.00
2019-01-08T17:00:53.169Z,11.04
2019-01-08T17:03:25.554Z,11.01
2019-01-08T17:05:53.059Z,11.01
2019-01-08T17:08:22.164Z,10.95
2019-01-08T17:10:51.367Z,10.93
2019-01-08T17:13:20.509Z,10.95
2019-01-08T17:15:49.945Z,10.95
2019-01-08T17:18:19.020Z,10.91
2019-01-08T17:20:48.106Z,10.92
2019-01-08T17:23:17.149Z,10.91
2019-01-08T17:25:48.099Z,10.90
2019-01-08T17:28:17.011Z,10.91
2019-01-08T17:30:46.130Z,10.91
2019-01-08T17:33:15.143Z,10.94
2019-01-08T17:35:44.287Z,10.93
2019-01-08T17:38:13.494Z,10.94
2019-01-08T17:40:42.658Z,10.96
2019-01-08T17:43:11.694Z,10.97
2019-01-08T17:45:40.812Z,10.97
2019-01-08T17:48:09.944Z,10.94
2019-01-08T17:50:39.054Z,10.92
2019-01-08T17:53:08.142Z,10.92
2019-01-08T17:55:37.202Z,10.89
2019-01-08T17:58:37.556Z,10.87
2019-01-08T18:01:15.409Z,10.80
2019-01-08T18:03:44.563Z,10.68
2019-01-08T18:06:13.665Z,10.59
2019-01-08T18:08:42.839Z,10.53
2019-01-08T18:11:11.948Z,10.56
2019-01-08T18:13:41.023Z,10.55
2019-01-08T18:16:10.103Z,10.51
2019-01-08T18:18:39.222Z,10.50
2019-01-08T18:21:08.280Z,10.47
2019-01-08T18:23:37.529Z,10.45
2019-01-08T18:26:07.021Z,10.36
2019-01-08T18:28:36.178Z,10.30
2019-01-08T18:31:05.413Z,10.24
2019-01-08T18:33:34.659Z,10.19
2019-01-08T18:36:03.822Z,10.19
2019-01-08T18:38:33.059Z,10.18
2019-01-08T18:41:02.194Z,10.25
2019-01-08T18:43:31.428Z,10.27
2019-01-08T18:46:00.652Z,10.34
2019-01-08T18:48:30.763Z,10.38
2019-01-08T18:50:59.818Z,10.44
2019-01-08T18:53:28.863Z,10.44
2019-01-08T18:55:58.083Z,10.48
2019-01-08T18:58:27.153Z,10.50
2019-01-08T19:00:56.242Z,10.58
2019-01-08T19:03:25.439Z,10.61
2019-01-08T19:05:54.520Z,10.64
2019-01-08T19:08:24.746Z,10.65
2019-01-08T19:10:53.859Z,10.64
2019-01-08T19:13:23.108Z,10.64
2019-01-08T19:15:52.257Z,10.66
2019-01-08T19:18:21.378Z,10.66
2019-01-08T19:20:50.378Z,10.65
2019-01-08T19:23:19.362Z,10.65
2019-01-08T19:25:48.457Z,10.69
2019-01-08T19:28:17.546Z,10.65
2019-01-08T19:30:46.633Z,10.64
2019-01-08T19:33:15.640Z,10.66
2019-01-08T19:35:44.715Z,10.60
2019-01-08T19:38:13.778Z,10.56
2019-01-08T19:40:42.877Z,10.53
2019-01-08T19:43:11.977Z,10.47
2019-01-08T19:45:41.031Z,10.44
2019-01-08T19:48:10.100Z,10.35
2019-01-08T19:50:39.267Z,10.28
2019-01-08T19:53:08.564Z,10.24
2019-01-08T19:55:37.776Z,10.19
2019-01-08T19:58:06.925Z,10.13
2019-01-08T20:00:36.060Z,10.12
2019-01-08T20:03:05.240Z,10.08
2019-01-08T20:05:34.383Z,10.08
2019-01-08T20:08:03.428Z,10.03
2019-01-08T20:10:32.747Z,10.01
2019-01-08T20:13:01.947Z,10.02
2019-01-08T20:15:30.949Z,10.02
2019-01-08T20:18:00.053Z,9.99
2019-01-08T20:20:29.137Z,10.00
2019-01-08T20:22:58.315Z,10.03
2019-01-08T20:25:27.409Z,10.06
2019-01-08T20:27:56.538Z,10.06
2019-01-08T20:30:25.610Z,10.07
2019-01-08T20:32:54.733Z,10.08
2019-01-08T20:35:23.936Z,10.06
2019-01-08T20:37:52.959Z,10.06
2019-01-08T20:40:22.296Z,10.09
2019-01-08T20:42:51.527Z,10.10
2019-01-08T20:45:20.644Z,10.11
2019-01-08T20:47:49.663Z,10.13
2019-01-08T20:50:18.870Z,10.09
2019-01-08T20:52:48.264Z,10.12
2019-01-08T20:55:17.332Z,10.12
2019-01-08T20:57:46.414Z,10.12
2019-01-08T21:00:15.565Z,10.13
2019-01-08T21:02:44.601Z,10.14
2019-01-08T21:05:13.697Z,10.12
2019-01-08T21:07:42.755Z,10.14
2019-01-08T21:10:11.796Z,10.01
2019-01-08T21:12:40.813Z,10.01
2019-01-08T21:15:09.870Z,9.98
2019-01-08T21:17:38.940Z,10.00
2019-01-08T21:20:08.166Z,9.95
2019-01-08T21:22:37.161Z,9.89
2019-01-08T21:25:06.301Z,9.90
2019-01-08T21:27:35.391Z,9.90
2019-01-08T21:30:05.046Z,9.92
2019-01-08T21:32:34.144Z,9.90
2019-01-08T21:35:03.485Z,9.93
2019-01-08T21:37:32.480Z,9.93
2019-01-08T21:40:01.499Z,9.93
2019-01-08T21:42:30.645Z,9.94
2019-01-08T21:44:59.848Z,9.89
